createdAt,value
2017-12-25T00:00:17.020Z,93.50
2017-12-25T00:02:44.472Z,93.50
2017-12-25T00:05:20.920Z,93.50
2017-12-25T00:07:49.121Z,93.50
2017-12-25T00:10:16.552Z,93.50
2017-12-25T00:12:48.888Z,93.50
2017-12-25T00:15:16.454Z,93.60
2017-12-25T00:17:43.889Z,93.60
2017-12-25T00:20:11.326Z,93.60
2017-12-25T00:22:38.890Z,93.60
2017-12-25T00:25:06.512Z,93.60
2017-12-25T00:27:33.949Z,93.60
2017-12-25T00:30:01.492Z,93.60
2017-12-25T00:32:28.925Z,93.60
2017-12-25T00:34:56.356Z,93.60
2017-12-25T00:37:24.608Z,93.60
2017-12-25T00:39:52.045Z,93.60
2017-12-25T00:42:19.481Z,93.60
2017-12-25T00:44:47.077Z,93.60
2017-12-25T00:47:14.511Z,93.50
2017-12-25T00:49:41.969Z,93.50
2017-12-25T00:52:09.396Z,93.50
2017-12-25T00:54:38.776Z,93.40
2017-12-25T00:57:06.972Z,93.30
2017-12-25T00:59:34.561Z,93.30
2017-12-25T01:02:01.995Z,93.30
2017-12-25T01:04:29.461Z,93.20
2017-12-25T01:06:56.896Z,93.30
2017-12-25T01:09:25.149Z,93.30
2017-12-25T01:12:12.166Z,93.30
2017-12-25T01:14:44.934Z,93.30
2017-12-25T01:17:12.369Z,93.20
2017-12-25T01:19:39.834Z,93.10
2017-12-25T01:22:07.260Z,93.10
2017-12-25T01:24:34.733Z,93.10
2017-12-25T01:27:02.225Z,93.10
2017-12-25T01:29:29.700Z,93.10
2017-12-25T01:31:57.309Z,93.00
2017-12-25T01:34:24.756Z,93.10
2017-12-25T01:36:52.180Z,93.00
2017-12-25T01:39:20.428Z,92.90
2017-12-25T01:41:47.857Z,92.80
2017-12-25T01:44:15.288Z,92.80
2017-12-25T01:46:42.853Z,92.80
2017-12-25T01:49:10.326Z,92.80
2017-12-25T01:51:37.758Z,92.80
2017-12-25T01:54:05.983Z,92.70
2017-12-25T01:56:40.001Z,92.70
2017-12-25T01:59:25.794Z,92.80
2017-12-25T02:08:00.601Z,93.10
2017-12-25T02:10:28.802Z,92.80
2017-12-25T02:12:56.997Z,92.80
2017-12-25T02:15:24.451Z,92.80
2017-12-25T02:17:51.891Z,92.90
2017-12-25T02:20:19.472Z,92.90
2017-12-25T02:23:08.966Z,93.00
2017-12-25T02:25:36.417Z,93.00
2017-12-25T02:28:03.852Z,93.10
2017-12-25T02:30:31.312Z,93.20
2017-12-25T02:32:58.751Z,93.20
2017-12-25T02:35:26.676Z,93.20
2017-12-25T02:37:54.109Z,93.30
2017-12-25T02:40:21.537Z,93.40
2017-12-25T02:42:48.998Z,93.40
2017-12-25T02:45:16.457Z,93.40
2017-12-25T02:47:43.906Z,93.50
2017-12-25T02:50:11.670Z,93.50
2017-12-25T02:52:39.097Z,93.60
2017-12-25T02:55:07.306Z,93.60
2017-12-25T02:57:34.776Z,93.50
2017-12-25T03:00:02.242Z,93.60
2017-12-25T03:02:29.696Z,93.50
2017-12-25T03:04:57.129Z,93.50
2017-12-25T03:07:24.700Z,93.50
2017-12-25T03:09:52.128Z,93.50
2017-12-25T03:12:20.381Z,93.60
2017-12-25T03:14:47.826Z,93.50
2017-12-25T03:17:15.256Z,93.60
2017-12-25T03:19:42.716Z,93.60
2017-12-25T03:22:10.160Z,93.60
2017-12-25T03:24:37.730Z,93.90
2017-12-25T03:27:05.148Z,93.60
2017-12-25T03:29:33.354Z,93.60
2017-12-25T03:32:00.821Z,93.60
2017-12-25T03:34:28.272Z,93.70
2017-12-25T03:36:55.713Z,93.70
2017-12-25T03:39:23.180Z,93.70
2017-12-25T03:41:50.784Z,93.80
2017-12-25T03:44:18.227Z,93.80
2017-12-25T03:46:45.657Z,93.90
2017-12-25T03:49:13.541Z,93.90
2017-12-25T03:51:41.004Z,93.90
2017-12-25T03:54:08.463Z,94.00
2017-12-25T03:56:35.924Z,94.00
2017-12-25T03:59:03.693Z,94.40
2017-12-25T04:01:31.124Z,94.20
2017-12-25T04:04:04.514Z,94.20
2017-12-25T04:06:31.940Z,94.20
2017-12-25T04:09:00.137Z,94.40
2017-12-25T04:11:27.603Z,94.30
2017-12-25T04:13:55.188Z,94.40
2017-12-25T04:16:22.626Z,94.50
2017-12-25T04:18:51.533Z,94.50
2017-12-25T04:21:18.964Z,94.60
2017-12-25T04:23:46.389Z,94.60
2017-12-25T04:26:14.653Z,94.70
2017-12-25T04:28:42.134Z,94.60
2017-12-25T04:31:10.312Z,94.80
2017-12-25T04:33:37.952Z,94.80
2017-12-25T04:36:05.391Z,94.80
2017-12-25T04:38:32.820Z,94.80
2017-12-25T04:41:00.317Z,94.80
2017-12-25T04:43:27.761Z,94.80
2017-12-25T04:45:55.184Z,94.90
2017-12-25T04:48:22.797Z,94.90
2017-12-25T04:50:51.162Z,95.00
2017-12-25T04:53:18.589Z,95.00
2017-12-25T04:55:46.085Z,95.00
2017-12-25T04:58:13.529Z,95.00
2017-12-25T05:00:40.970Z,95.00
2017-12-25T05:03:08.448Z,95.00
2017-12-25T05:05:36.152Z,95.00
2017-12-25T05:08:03.592Z,95.00
2017-12-25T05:10:31.954Z,95.00
2017-12-25T05:12:59.413Z,95.00
2017-12-25T05:15:26.850Z,95.00
2017-12-25T05:17:54.289Z,95.00
2017-12-25T05:20:21.749Z,95.30
2017-12-25T05:22:49.206Z,95.10
2017-12-25T05:25:16.640Z,95.10
2017-12-25T05:27:44.240Z,95.10
2017-12-25T05:30:15.705Z,95.10
2017-12-25T05:32:43.136Z,95.20
2017-12-25T05:35:10.596Z,95.10
2017-12-25T05:37:38.025Z,95.10
2017-12-25T05:40:05.484Z,95.10
2017-12-25T05:42:32.911Z,95.20
2017-12-25T05:45:01.197Z,95.20
2017-12-25T05:47:29.393Z,95.20
2017-12-25T05:49:56.848Z,95.10
2017-12-25T05:52:24.301Z,95.20
2017-12-25T05:54:51.775Z,95.10
2017-12-25T05:57:19.210Z,95.10
2017-12-25T05:59:46.670Z,95.10
2017-12-25T06:02:14.114Z,95.00
2017-12-25T06:04:46.625Z,94.90
2017-12-25T06:07:14.062Z,94.90
2017-12-25T06:09:41.516Z,94.90
2017-12-25T06:12:08.945Z,94.80
2017-12-25T06:14:36.410Z,94.70
2017-12-25T06:17:03.836Z,94.60
2017-12-25T06:19:31.272Z,94.60
2017-12-25T06:21:58.856Z,94.50
2017-12-25T06:24:26.601Z,94.40
2017-12-25T06:26:54.049Z,94.40
2017-12-25T06:29:21.488Z,94.30
2017-12-25T06:31:48.966Z,94.30
2017-12-25T06:34:16.853Z,94.30
2017-12-25T06:36:44.309Z,94.20
2017-12-25T06:39:11.745Z,94.10
2017-12-25T06:41:39.279Z,94.00
2017-12-25T06:44:07.482Z,93.90
2017-12-25T06:46:35.076Z,93.90
2017-12-25T06:49:02.506Z,93.80
2017-12-25T06:51:29.972Z,93.70
2017-12-25T06:53:57.445Z,93.70
2017-12-25T06:56:24.909Z,93.70
2017-12-25T06:58:52.689Z,93.60
2017-12-25T07:01:20.150Z,93.60
2017-12-25T07:03:48.360Z,93.50
2017-12-25T07:06:18.854Z,93.50
2017-12-25T07:08:46.276Z,93.40
2017-12-25T07:11:14.739Z,93.40
2017-12-25T07:13:42.145Z,93.40
2017-12-25T07:16:09.585Z,93.40
2017-12-25T07:18:37.051Z,93.30
2017-12-25T07:21:04.486Z,93.40
2017-12-25T07:23:32.033Z,93.30
2017-12-25T07:26:13.376Z,93.30
2017-12-25T07:28:41.643Z,93.30
2017-12-25T07:31:09.074Z,93.30
2017-12-25T07:33:36.530Z,93.30
2017-12-25T07:36:03.997Z,93.20
2017-12-25T07:38:31.428Z,93.20
2017-12-25T07:40:58.892Z,93.20
2017-12-25T07:43:26.333Z,93.20
2017-12-25T07:45:53.995Z,93.10
2017-12-25T07:48:21.421Z,93.10
2017-12-25T07:50:48.886Z,93.10
2017-12-25T07:53:16.325Z,93.00
2017-12-25T07:55:44.524Z,93.00
2017-12-25T07:58:11.997Z,93.00
2017-12-25T08:00:39.421Z,93.00
2017-12-25T08:03:06.862Z,93.00
2017-12-25T08:05:34.394Z,93.00
2017-12-25T08:08:01.862Z,92.90
2017-12-25T08:10:29.289Z,92.90
2017-12-25T08:12:56.773Z,92.80
2017-12-25T08:15:24.239Z,92.80
2017-12-25T08:17:51.666Z,92.80
2017-12-25T08:20:19.905Z,93.00
2017-12-25T08:22:47.334Z,92.70
2017-12-25T08:25:15.853Z,92.70
2017-12-25T08:27:43.329Z,92.60
2017-12-25T08:30:10.823Z,92.60
2017-12-25T08:32:38.286Z,92.60
2017-12-25T08:35:05.719Z,92.50
2017-12-25T08:37:33.177Z,92.50
2017-12-25T08:40:00.613Z,92.40
2017-12-25T08:42:28.246Z,92.40
2017-12-25T08:44:56.469Z,92.40
2017-12-25T08:47:23.914Z,92.40
2017-12-25T08:49:51.373Z,92.30
2017-12-25T08:52:18.860Z,92.30
2017-12-25T08:54:46.292Z,92.30
2017-12-25T08:57:13.744Z,92.30
2017-12-25T08:59:44.270Z,92.30
2017-12-25T09:02:11.781Z,92.30
2017-12-25T09:04:39.309Z,92.20
2017-12-25T09:07:06.748Z,92.20
2017-12-25T09:09:34.215Z,92.20
2017-12-25T09:12:01.644Z,92.20
2017-12-25T09:14:29.224Z,92.20
2017-12-25T09:16:56.672Z,92.20
2017-12-25T09:19:24.153Z,92.10
2017-12-25T09:21:51.592Z,92.10
2017-12-25T09:24:21.532Z,92.10
2017-12-25T09:26:48.970Z,92.40
2017-12-25T09:29:16.423Z,92.10
2017-12-25T09:31:47.865Z,92.10
2017-12-25T09:34:15.294Z,92.10
2017-12-25T09:36:43.521Z,92.10
2017-12-25T09:39:10.958Z,92.10
2017-12-25T09:41:38.415Z,92.00
2017-12-25T09:44:05.890Z,91.80
2017-12-25T09:46:33.397Z,91.80
2017-12-25T09:49:01.606Z,91.60
2017-12-25T09:51:29.092Z,91.60
2017-12-25T09:53:56.540Z,91.50
2017-12-25T09:56:23.979Z,91.60
2017-12-25T09:58:51.562Z,91.60
2017-12-25T10:01:18.997Z,91.50
2017-12-25T10:03:46.680Z,91.40
2017-12-25T10:06:14.490Z,91.30
2017-12-25T10:08:41.884Z,91.20
2017-12-25T10:11:09.328Z,91.20
2017-12-25T10:13:36.798Z,91.20
2017-12-25T10:16:04.266Z,91.10
2017-12-25T10:18:31.696Z,91.10
2017-12-25T10:20:59.390Z,91.10
2017-12-25T10:23:26.834Z,91.10
2017-12-25T10:25:54.281Z,91.00
2017-12-25T10:28:21.776Z,91.00
2017-12-25T10:30:49.213Z,91.00
2017-12-25T10:33:17.416Z,91.10
2017-12-25T10:35:44.869Z,91.10
2017-12-25T10:38:12.313Z,91.10
2017-12-25T10:40:39.976Z,91.00
2017-12-25T10:43:07.406Z,91.00
2017-12-25T10:45:34.838Z,90.90
2017-12-25T10:48:03.578Z,90.80
2017-12-25T10:50:31.017Z,90.80
2017-12-25T10:52:58.457Z,90.80
2017-12-25T10:55:26.092Z,90.80
2017-12-25T10:57:53.532Z,90.80
2017-12-25T11:00:20.965Z,90.70
2017-12-25T11:02:48.421Z,90.60
2017-12-25T11:05:15.980Z,90.60
2017-12-25T11:07:43.681Z,90.50
2017-12-25T11:10:11.121Z,90.20
2017-12-25T11:12:38.666Z,90.20
2017-12-25T11:15:19.693Z,90.00
2017-12-25T11:17:47.917Z,90.00
2017-12-25T11:20:15.356Z,90.00
2017-12-25T11:22:42.901Z,90.00
2017-12-25T11:25:10.736Z,90.00
2017-12-25T11:27:38.937Z,89.50
2017-12-25T11:30:10.030Z,89.50
2017-12-25T11:32:37.480Z,89.20
2017-12-25T11:35:04.926Z,89.10
2017-12-25T11:37:32.405Z,89.00
2017-12-25T11:39:59.841Z,89.50
2017-12-25T11:42:27.273Z,88.80
2017-12-25T11:44:54.857Z,88.50
2017-12-25T11:47:22.325Z,88.50
2017-12-25T11:49:49.758Z,88.10
2017-12-25T11:52:17.258Z,88.00
2017-12-25T11:54:44.693Z,87.50
2017-12-25T11:57:12.134Z,87.40
2017-12-25T11:59:39.636Z,87.30
2017-12-25T12:02:07.081Z,87.30
2017-12-25T12:04:34.512Z,87.10
2017-12-25T12:07:02.913Z,87.10
2017-12-25T12:09:30.353Z,87.10
2017-12-25T12:11:57.772Z,86.90
2017-12-25T12:14:28.572Z,86.80
2017-12-25T12:16:56.013Z,86.80
2017-12-25T12:19:23.465Z,86.10
2017-12-25T12:21:50.932Z,86.40
2017-12-25T12:24:18.504Z,86.20
2017-12-25T12:26:46.231Z,85.90
2017-12-25T12:29:13.739Z,85.70
2017-12-25T12:31:41.186Z,85.30
2017-12-25T12:34:08.669Z,85.20
2017-12-25T12:36:54.858Z,85.10
2017-12-25T12:39:22.486Z,85.00
2017-12-25T12:41:49.936Z,85.00
2017-12-25T12:44:17.374Z,84.80
2017-12-25T12:46:44.853Z,84.60
2017-12-25T12:49:12.306Z,84.70
2017-12-25T12:51:39.748Z,84.60
2017-12-25T12:54:07.241Z,84.50
2017-12-25T12:56:35.001Z,84.30
2017-12-25T12:59:02.585Z,84.30
2017-12-25T13:01:30.038Z,84.20
2017-12-25T13:03:57.481Z,84.30
2017-12-25T13:06:25.119Z,84.10
2017-12-25T13:08:52.577Z,84.10
2017-12-25T13:11:20.027Z,84.10
2017-12-25T13:13:47.518Z,84.10
2017-12-25T13:16:15.076Z,84.00
2017-12-25T13:18:42.540Z,83.90
2017-12-25T13:21:10.002Z,83.80
2017-12-25T13:23:37.758Z,83.70
2017-12-25T13:26:05.213Z,83.50
2017-12-25T13:28:32.748Z,83.40
2017-12-25T13:31:00.185Z,83.20
2017-12-25T13:33:27.653Z,83.30
2017-12-25T13:35:55.088Z,83.30
2017-12-25T13:38:22.688Z,83.30
2017-12-25T13:40:50.141Z,83.30
2017-12-25T13:43:17.601Z,83.30
2017-12-25T13:45:45.118Z,83.20
2017-12-25T13:48:13.317Z,83.10
2017-12-25T13:50:40.751Z,83.00
2017-12-25T13:53:09.157Z,83.00
2017-12-25T13:55:36.597Z,83.00
2017-12-25T13:58:04.024Z,83.00
2017-12-25T14:00:32.265Z,83.80
2017-12-25T14:02:59.727Z,83.00
2017-12-25T14:05:27.157Z,83.10
2017-12-25T14:07:54.956Z,83.00
2017-12-25T14:10:22.402Z,83.10
2017-12-25T14:12:49.836Z,83.20
2017-12-25T14:15:17.402Z,83.20
2017-12-25T14:17:44.841Z,83.30
2017-12-25T14:20:12.304Z,83.30
2017-12-25T14:22:39.769Z,83.30
2017-12-25T14:25:09.719Z,83.40
2017-12-25T14:27:37.177Z,83.50
2017-12-25T14:30:04.647Z,83.50
2017-12-25T14:32:32.093Z,83.70
2017-12-25T14:34:59.525Z,83.60
2017-12-25T14:37:30.917Z,83.40
2017-12-25T14:39:58.352Z,83.60
2017-12-25T14:42:25.793Z,84.20
2017-12-25T14:44:54.021Z,83.70
2017-12-25T14:47:22.584Z,83.70
2017-12-25T14:49:50.029Z,83.70
2017-12-25T14:52:17.457Z,83.80
2017-12-25T14:54:45.928Z,83.90
2017-12-25T14:57:14.129Z,83.40
2017-12-25T14:59:41.560Z,83.90
2017-12-25T15:02:09.031Z,83.90
2017-12-25T15:04:37.242Z,84.40
2017-12-25T15:07:04.677Z,84.40
2017-12-25T15:09:32.240Z,84.40
2017-12-25T15:11:59.664Z,84.40
2017-12-25T15:14:27.092Z,84.40
2017-12-25T15:16:54.569Z,84.30
2017-12-25T15:19:22.025Z,84.30
2017-12-25T15:21:49.455Z,84.20
2017-12-25T15:24:16.924Z,84.30
2017-12-25T15:26:44.624Z,84.30
2017-12-25T15:29:12.824Z,84.60
2017-12-25T15:31:40.422Z,84.50
2017-12-25T15:34:07.898Z,84.50
2017-12-25T15:36:35.320Z,84.70
2017-12-25T15:39:02.784Z,84.70
2017-12-25T15:41:30.248Z,84.50
2017-12-25T15:43:57.677Z,84.70
2017-12-25T15:46:25.221Z,84.70
2017-12-25T15:48:53.422Z,84.80
2017-12-25T15:51:20.876Z,84.80
2017-12-25T15:53:48.331Z,84.80
2017-12-25T15:56:15.766Z,84.90
2017-12-25T15:58:44.171Z,85.10
2017-12-25T16:01:12.374Z,85.10
2017-12-25T16:03:39.813Z,85.10
2017-12-25T16:06:07.289Z,85.10
2017-12-25T16:08:34.734Z,85.10
2017-12-25T16:11:02.197Z,85.30
2017-12-25T16:13:29.688Z,85.40
2017-12-25T16:15:57.125Z,85.40
2017-12-25T16:18:24.572Z,85.30
2017-12-25T16:20:52.554Z,85.30
2017-12-25T16:23:19.986Z,85.50
2017-12-25T16:25:48.192Z,85.90
2017-12-25T16:28:15.692Z,85.70
2017-12-25T16:30:43.152Z,85.80
2017-12-25T16:33:10.598Z,85.80
2017-12-25T16:35:39.232Z,86.00
2017-12-25T16:38:06.681Z,86.00
2017-12-25T16:40:34.120Z,85.80
2017-12-25T16:43:02.497Z,85.90
2017-12-25T16:45:29.959Z,85.90
2017-12-25T16:47:57.388Z,85.90
2017-12-25T16:50:25.724Z,85.80
2017-12-25T16:52:53.162Z,85.90
2017-12-25T16:55:20.596Z,85.80
2017-12-25T16:57:48.112Z,85.90
2017-12-25T17:00:15.553Z,85.80
2017-12-25T17:02:43.013Z,85.90
2017-12-25T17:05:11.770Z,85.90
2017-12-25T17:07:39.229Z,85.90
2017-12-25T17:10:06.649Z,86.60
2017-12-25T17:12:34.880Z,85.90
2017-12-25T17:15:02.657Z,85.90
2017-12-25T17:17:30.102Z,85.90
2017-12-25T17:19:57.584Z,85.80
2017-12-25T17:22:25.020Z,86.00
2017-12-25T17:24:52.456Z,86.00
2017-12-25T17:27:19.910Z,86.10
2017-12-25T17:29:47.346Z,86.20
2017-12-25T17:32:14.905Z,86.30
2017-12-25T17:34:43.103Z,86.10
2017-12-25T17:37:10.594Z,86.10
2017-12-25T17:39:38.028Z,86.10
2017-12-25T17:42:05.470Z,86.10
2017-12-25T17:44:32.978Z,85.80
2017-12-25T17:47:00.423Z,85.80
2017-12-25T17:49:31.535Z,85.80
2017-12-25T17:51:58.961Z,85.70
2017-12-25T17:54:28.129Z,85.70
2017-12-25T17:56:55.602Z,85.70
2017-12-25T17:59:23.077Z,85.70
2017-12-25T18:01:51.268Z,85.70
2017-12-25T18:04:18.716Z,85.70
2017-12-25T18:06:46.430Z,85.50
2017-12-25T18:09:13.884Z,85.40
2017-12-25T18:11:41.319Z,85.60
2017-12-25T18:14:09.976Z,85.50
2017-12-25T18:16:37.436Z,85.40
2017-12-25T18:19:04.870Z,85.30
2017-12-25T18:21:32.328Z,85.20
2017-12-25T18:23:59.833Z,85.10
2017-12-25T18:26:31.837Z,85.00
2017-12-25T18:28:59.273Z,84.80
2017-12-25T18:31:26.717Z,84.90
2017-12-25T18:33:54.197Z,84.80
2017-12-25T18:36:21.662Z,84.80
2017-12-25T18:38:49.122Z,84.90
2017-12-25T18:41:18.521Z,85.60
2017-12-25T18:43:46.121Z,85.00
2017-12-25T18:46:13.570Z,85.00
2017-12-25T18:48:41.822Z,85.10
2017-12-25T18:51:09.293Z,85.10
2017-12-25T18:53:36.742Z,85.20
2017-12-25T18:56:04.251Z,85.10
2017-12-25T18:58:32.108Z,85.10
2017-12-25T19:00:59.575Z,85.20
2017-12-25T19:03:27.127Z,85.20
2017-12-25T19:05:54.597Z,85.40
2017-12-25T19:11:27.641Z,85.30
2017-12-25T19:13:55.107Z,85.40
2017-12-25T19:16:22.845Z,85.50
2017-12-25T19:18:50.282Z,85.60
2017-12-25T19:21:17.735Z,85.60
2017-12-25T19:23:45.382Z,85.70
2017-12-25T19:26:13.166Z,85.50
2017-12-25T19:28:40.693Z,85.50
2017-12-25T19:31:08.904Z,85.70
2017-12-25T19:33:36.485Z,85.70
2017-12-25T19:36:03.918Z,85.80
2017-12-25T19:38:31.403Z,85.80
2017-12-25T19:40:58.853Z,86.60
2017-12-25T19:43:26.424Z,85.80
2017-12-25T19:45:53.873Z,85.70
2017-12-25T19:48:21.318Z,85.70
2017-12-25T19:50:52.785Z,85.60
2017-12-25T19:53:20.253Z,85.50
2017-12-25T19:55:47.713Z,85.50
2017-12-25T19:58:15.152Z,85.40
2017-12-25T20:00:43.030Z,85.40
2017-12-25T20:03:10.478Z,85.30
2017-12-25T20:05:39.321Z,85.20
2017-12-25T20:08:07.596Z,85.10
2017-12-25T20:10:35.041Z,85.10
2017-12-25T20:13:02.516Z,85.00
2017-12-25T20:15:29.965Z,85.10
2017-12-25T20:17:58.188Z,85.10
2017-12-25T20:20:25.628Z,85.10
2017-12-25T20:22:54.120Z,85.00
2017-12-25T20:25:21.561Z,85.10
2017-12-25T20:27:48.993Z,85.10
2017-12-25T20:30:18.684Z,85.00
2017-12-25T20:32:46.112Z,84.90
2017-12-25T20:35:13.563Z,84.90
2017-12-25T20:37:41.028Z,85.00
2017-12-25T20:40:08.493Z,85.00
2017-12-25T20:42:35.924Z,85.20
2017-12-25T20:45:03.570Z,85.30
2017-12-25T20:47:35.180Z,85.30
2017-12-25T20:50:02.623Z,85.20
2017-12-25T20:52:30.109Z,85.30
2017-12-25T20:54:57.563Z,85.30
2017-12-25T20:57:25.041Z,85.30
2017-12-25T20:59:52.574Z,85.40
2017-12-25T21:02:20.073Z,85.40
2017-12-25T21:04:51.581Z,85.40
2017-12-25T21:07:19.057Z,85.50
2017-12-25T21:09:47.456Z,85.50
2017-12-25T21:12:14.934Z,85.50
2017-12-25T21:14:42.373Z,85.60
2017-12-25T21:17:09.856Z,85.60
2017-12-25T21:19:37.332Z,85.60
2017-12-25T21:22:04.826Z,85.70
2017-12-25T21:24:32.284Z,85.90
2017-12-25T21:27:00.646Z,86.70
2017-12-25T21:29:28.119Z,85.90
2017-12-25T21:31:56.380Z,85.80
2017-12-25T21:34:23.905Z,85.70
2017-12-25T21:36:51.407Z,85.80
2017-12-25T21:39:18.844Z,85.90
2017-12-25T21:41:46.389Z,85.90
2017-12-25T21:44:13.826Z,85.80
2017-12-25T21:46:41.285Z,85.90
2017-12-25T21:49:08.716Z,86.00
2017-12-25T21:51:36.226Z,86.00
2017-12-25T21:54:03.665Z,86.00
2017-12-25T21:56:31.114Z,86.10
2017-12-25T21:58:58.665Z,86.10
2017-12-25T22:01:26.096Z,86.00
2017-12-25T22:03:54.326Z,86.00
2017-12-25T22:06:22.071Z,86.00
2017-12-25T22:09:03.257Z,86.10
2017-12-25T22:11:30.684Z,86.30
2017-12-25T22:14:05.165Z,86.40
2017-12-25T22:16:32.597Z,86.50
2017-12-25T22:19:00.034Z,86.40
2017-12-25T22:21:27.511Z,86.50
2017-12-25T22:24:01.733Z,86.50
2017-12-25T22:26:29.333Z,86.50
2017-12-25T22:28:56.764Z,86.50
2017-12-25T22:31:24.193Z,86.60
2017-12-25T22:33:51.730Z,86.70
2017-12-25T22:36:19.185Z,86.70
2017-12-25T22:38:46.617Z,86.80
2017-12-25T22:41:14.073Z,86.70
2017-12-25T22:43:41.496Z,86.80
2017-12-25T22:46:08.984Z,86.80
2017-12-25T22:48:36.420Z,86.80
2017-12-25T22:51:03.850Z,86.90
2017-12-25T22:53:34.097Z,87.10
2017-12-25T22:56:01.589Z,87.10
2017-12-25T22:58:29.025Z,87.20
2017-12-25T23:00:56.471Z,87.30
2017-12-25T23:03:23.925Z,87.40
2017-12-25T23:05:51.352Z,87.30
2017-12-25T23:08:18.853Z,87.30
2017-12-25T23:10:47.233Z,87.20
2017-12-25T23:13:14.758Z,87.20
2017-12-25T23:15:42.194Z,87.20
2017-12-25T23:18:09.664Z,87.20
2017-12-25T23:20:37.094Z,87.10
2017-12-25T23:23:05.313Z,87.10
2017-12-25T23:25:32.753Z,87.10
2017-12-25T23:28:09.477Z,87.10
2017-12-25T23:30:36.949Z,87.10
2017-12-25T23:33:04.377Z,87.00
2017-12-25T23:35:32.240Z,87.00
2017-12-25T23:37:59.677Z,87.00
2017-12-25T23:40:27.104Z,87.20
2017-12-25T23:42:55.333Z,87.30
2017-12-25T23:45:22.772Z,87.30
2017-12-25T23:47:50.276Z,87.40
2017-12-25T23:50:17.706Z,87.50
2017-12-25T23:52:52.962Z,87.50
2017-12-25T23:55:20.400Z,87.50
2017-12-25T23:57:47.858Z,87.50
